Time;durP1;ratioP1;P1;durP2;ratioP2;P2;SDS_P1;SDS_P2;PMS_P1;PMS_P2;Temp;Humidity;BMP_temperature;BMP_pressure;BME280_temperature;BME280_humidity;BME280_pressure;Samples;Min_cycle;Max_cycle;Signal;HPM_P1;HPM_P2
2022/10/17 00:00:59;;;;;;;;;;;;;;;;;;4946144;29;19918;-92
2022/10/17 00:03:24;;;;;;;;;;;;;;;;;;4945473;29;19966;-91
2022/10/17 00:05:50;;;;;;;;;;;;;;;;;;4963126;29;19922;-91
2022/10/17 00:08:16;;;;;;;;;;;;;;;;;;4946517;29;19929;-92
2022/10/17 00:10:42;;;;;;;;;;;;;;;;;;4945854;29;19950;-91
2022/10/17 00:13:08;;;;;;;;;;;;;;;;;;4946625;29;19918;-89
2022/10/17 00:15:34;;;;;;;;;;;;;;;;;;4964121;29;19923;-90
2022/10/17 00:18:00;;;;;;;;;;;;;;;;;;4963904;28;19918;-92
2022/10/17 00:20:25;;;;;;;;;;;;;;;;;;4947359;29;19918;-91
2022/10/17 00:22:51;;;;;;;;;;;;;;;;;;4947373;29;19915;-93
2022/10/17 00:25:17;;;;;;;;;;;;;;;;;;4946022;29;19965;-90
2022/10/17 00:27:43;;;;;;;;;;;;;;;;;;4946570;29;19915;-90
2022/10/17 00:30:12;;;;;;;;;;;;;;;;;;4945542;29;20009;-92
2022/10/17 00:32:38;;;;;;;;;;;;;;;;;;4961995;29;19957;-92
2022/10/17 00:35:04;;;;;;;;;;;;;;;;;;4946001;29;19930;-91
2022/10/17 00:37:30;;;;;;;;;;;;;;;;;;4963162;29;19981;-92
2022/10/17 00:39:55;;;;;;;;;;;;;;;;;;4962450;29;19915;-91
2022/10/17 00:42:21;;;;;;;;;;;;;;;;;;4945324;29;19924;-92
2022/10/17 00:44:46;;;;;;;;;;;;;;;;;;4947442;29;19977;-91
2022/10/17 00:47:14;;;;;;;;;;;;;;;;;;4953373;29;19990;-93
2022/10/17 00:49:40;;;;;;;;;;;;;;;;;;4960927;28;19930;-92
2022/10/17 00:52:10;;;;;;;;;;;;;;;;;;4942706;28;19931;-90
2022/10/17 00:54:37;;;;;;;;;;;;;;;;;;4945653;29;19923;-91
2022/10/17 00:57:05;;;;;;;;;;;;;;;;;;4945118;29;20018;-91
2022/10/17 00:59:39;;;;;;;;;;;;;;;;;;4926486;29;19919;-90
2022/10/17 01:02:07;;;;;;;;;;;;;;;;;;4942514;29;19919;-91
2022/10/17 01:04:35;;;;;;;;;;;;;;;;;;4927946;29;19919;-91
2022/10/17 01:07:00;;;;;;;;;;;;;;;;;;4944007;29;20014;-91
2022/10/17 01:09:26;;;;;;;;;;;;;;;;;;4942889;29;19969;-91
2022/10/17 01:11:57;;;;;;;;;;;;;;;;;;4959048;29;19922;-93
2022/10/17 01:14:52;;;;;;;;;;;;;;;;;;4947053;29;20445;-90
2022/10/17 01:17:38;;;;;;;;;;;;;;;;;;4945748;29;19974;-91
2022/10/17 01:20:10;;;;;;;;;;;;;;;;;;4962188;28;19956;-93
2022/10/17 01:23:05;;;;;;;;;;;;;;;;;;4944920;29;19957;-92
2022/10/17 01:25:47;;;;;;;;;;;;;;;;;;4944174;29;19919;-89
2022/10/17 01:28:31;;;;;;;;;;;;;;;;;;4946133;29;20326;-90
2022/10/17 01:31:09;;;;;;;;;;;;;;;;;;4945156;29;19949;-92
2022/10/17 01:34:01;;;;;;;;;;;;;;;;;;4945221;29;19941;-91
2022/10/17 01:36:27;;;;;;;;;;;;;;;;;;4943774;29;19922;-91
2022/10/17 01:38:57;;;;;;;;;;;;;;;;;;4960948;29;20005;-91
2022/10/17 01:41:28;;;;;;;;;;;;;;;;;;4944671;29;20010;-92
2022/10/17 01:44:31;;;;;;;;;;;;;;;;;;4943845;29;20018;-90
2022/10/17 01:47:02;;;;;;;;;;;;;;;;;;4962007;29;19918;-94
2022/10/17 01:49:28;;;;;;;;;;;;;;;;;;4943763;29;19934;-91
2022/10/17 01:52:05;;;;;;;;;;;;;;;;;;4928435;29;19931;-92
2022/10/17 01:54:43;;;;;;;;;;;;;;;;;;4961486;28;19953;-90
2022/10/17 01:57:29;;;;;;;;;;;;;;;;;;4943851;29;19919;-91
2022/10/17 01:59:55;;;;;;;;;;;;;;;;;;4926375;29;19926;-93
2022/10/17 02:02:21;;;;;;;;;;;;;;;;;;4925472;29;19918;-91
2022/10/17 02:04:47;;;;;;;;;;;;;;;;;;4925383;29;20407;-92
2022/10/17 02:07:15;;;;;;;;;;;;;;;;;;4926062;29;19923;-91
2022/10/17 02:09:46;;;;;;;;;;;;;;;;;;4925359;29;19977;-90
2022/10/17 02:12:18;;;;;;;;;;;;;;;;;;4925646;29;19919;-92
2022/10/17 02:14:52;;;;;;;;;;;;;;;;;;4925684;29;19950;-92
2022/10/17 02:19:54;;;;;;;;;;;;;;;;;;4949101;23;19934;-90
2022/10/17 02:22:38;;;;;;;;;;;;;;;;;;4924665;29;19919;-91
2022/10/17 02:25:06;;;;;;;;;;;;;;;;;;4924838;29;20017;-90
2022/10/17 02:27:41;;;;;;;;;;;;;;;;;;4925504;29;19918;-91
2022/10/17 02:30:10;;;;;;;;;;;;;;;;;;4923541;29;19926;-92
2022/10/17 02:32:39;;;;;;;;;;;;;;;;;;4923530;29;19922;-90
2022/10/17 02:35:06;;;;;;;;;;;;;;;;;;4940895;29;20414;-91
2022/10/17 02:37:33;;;;;;;;;;;;;;;;;;4908070;29;19923;-91
2022/10/17 02:39:59;;;;;;;;;;;;;;;;;;4923406;29;20445;-91
2022/10/17 02:42:26;;;;;;;;;;;;;;;;;;4937725;29;19966;-91
2022/10/17 02:44:52;;;;;;;;;;;;;;;;;;4923056;29;20390;-91
2022/10/17 02:47:22;;;;;;;;;;;;;;;;;;4923507;29;20382;-91
2022/10/17 02:49:57;;;;;;;;;;;;;;;;;;4941185;29;19918;-90
2022/10/17 02:52:35;;;;;;;;;;;;;;;;;;4923006;29;19923;-93
2022/10/17 02:55:23;;;;;;;;;;;;;;;;;;4923461;29;19923;-91
2022/10/17 02:57:51;;;;;;;;;;;;;;;;;;4924272;29;20001;-91
2022/10/17 03:00:17;;;;;;;;;;;;;;;;;;4922899;29;20298;-91
2022/10/17 03:02:45;;;;;;;;;;;;;;;;;;4922457;29;19930;-91
2022/10/17 03:05:11;;;;;;;;;;;;;;;;;;4921410;29;19930;-90
2022/10/17 03:07:37;;;;;;;;;;;;;;;;;;4940415;29;19923;-92
2022/10/17 03:10:03;;;;;;;;;;;;;;;;;;4920145;29;19919;-91
2022/10/17 03:12:28;;;;;;;;;;;;;;;;;;4919833;29;20386;-90
2022/10/17 03:14:54;;;;;;;;;;;;;;;;;;4907498;29;19969;-92
2022/10/17 03:17:19;;;;;;;;;;;;;;;;;;4918184;29;19919;-90
2022/10/17 03:19:44;;;;;;;;;;;;;;;;;;4917685;29;20386;-92
2022/10/17 03:22:10;;;;;;;;;;;;;;;;;;4918782;29;19919;-91
2022/10/17 03:24:35;;;;;;;;;;;;;;;;;;4920568;29;19934;-91
2022/10/17 03:27:01;;;;;;;;;;;;;;;;;;4941346;29;19926;-91
2022/10/17 03:29:26;;;;;;;;;;;;;;;;;;4943415;29;19926;-90
2022/10/17 03:31:52;;;;;;;;;;;;;;;;;;4920151;29;20013;-91
2022/10/17 03:34:17;;;;;;;;;;;;;;;;;;4918686;29;19919;-91
2022/10/17 03:36:43;;;;;;;;;;;;;;;;;;4923368;29;20042;-90
2022/10/17 03:39:09;;;;;;;;;;;;;;;;;;4940750;29;20519;-90
2022/10/17 03:41:34;;;;;;;;;;;;;;;;;;4937747;29;19930;-90
2022/10/17 03:43:59;;;;;;;;;;;;;;;;;;4918373;29;19919;-91
2022/10/17 03:46:25;;;;;;;;;;;;;;;;;;4932538;29;19931;-89
2022/10/17 03:48:50;;;;;;;;;;;;;;;;;;4909675;29;20044;-88
2022/10/17 03:51:16;;;;;;;;;;;;;;;;;;4903441;29;19927;-89
2022/10/17 03:53:41;;;;;;;;;;;;;;;;;;4919616;29;19970;-93
2022/10/17 03:56:10;;;;;;;;;;;;;;;;;;4921820;29;19965;-91
2022/10/17 03:58:35;;;;;;;;;;;;;;;;;;4908226;29;20378;-91
2022/10/17 04:01:05;;;;;;;;;;;;;;;;;;4921583;29;19926;-90
2022/10/17 04:03:31;;;;;;;;;;;;;;;;;;4926240;29;20036;-91
2022/10/17 04:06:00;;;;;;;;;;;;;;;;;;4919210;29;19975;-90
2022/10/17 04:08:26;;;;;;;;;;;;;;;;;;4915556;29;20305;-91
2022/10/17 04:10:51;;;;;;;;;;;;;;;;;;4923410;29;20013;-92
2022/10/17 04:13:17;;;;;;;;;;;;;;;;;;4936245;29;20396;-91
2022/10/17 04:15:52;;;;;;;;;;;;;;;;;;4907674;29;20370;-93
2022/10/17 04:18:17;;;;;;;;;;;;;;;;;;4933150;29;19982;-91
2022/10/17 04:20:43;;;;;;;;;;;;;;;;;;4928101;29;20013;-92
2022/10/17 04:23:08;;;;;;;;;;;;;;;;;;4915304;29;20298;-89
2022/10/17 04:25:34;;;;;;;;;;;;;;;;;;4924004;29;19970;-91
2022/10/17 04:27:59;;;;;;;;;;;;;;;;;;4924003;29;19919;-89
2022/10/17 04:30:24;;;;;;;;;;;;;;;;;;4939813;29;19941;-90
2022/10/17 04:32:50;;;;;;;;;;;;;;;;;;4940209;29;19923;-93
2022/10/17 04:35:15;;;;;;;;;;;;;;;;;;4922920;29;19937;-91
2022/10/17 04:37:41;;;;;;;;;;;;;;;;;;4941374;29;19919;-91
2022/10/17 04:40:06;;;;;;;;;;;;;;;;;;4941438;29;19925;-94
2022/10/17 04:42:32;;;;;;;;;;;;;;;;;;4940385;29;19965;-94
2022/10/17 04:44:57;;;;;;;;;;;;;;;;;;4939694;29;19919;-93
2022/10/17 04:47:23;;;;;;;;;;;;;;;;;;4923094;29;19918;-93
2022/10/17 04:49:48;;;;;;;;;;;;;;;;;;4941156;29;19922;-92
2022/10/17 04:52:14;;;;;;;;;;;;;;;;;;4938468;29;19962;-93
2022/10/17 04:54:39;;;;;;;;;;;;;;;;;;4927574;29;19926;-92
2022/10/17 04:57:04;;;;;;;;;;;;;;;;;;4948656;29;19927;-92
2022/10/17 04:59:30;;;;;;;;;;;;;;;;;;4945609;28;19946;-91
2022/10/17 05:01:55;;;;;;;;;;;;;;;;;;4949221;28;19931;-94
2022/10/17 05:04:21;;;;;;;;;;;;;;;;;;4915745;29;19951;-91
2022/10/17 05:06:46;;;;;;;;;;;;;;;;;;4927759;29;19927;-90
2022/10/17 05:09:12;;;;;;;;;;;;;;;;;;4920264;29;19919;-89
2022/10/17 05:11:37;;;;;;;;;;;;;;;;;;4903935;29;19919;-88
2022/10/17 05:14:02;;;;;;;;;;;;;;;;;;4919671;29;19950;-92
2022/10/17 05:16:28;;;;;;;;;;;;;;;;;;4918214;29;19923;-93
2022/10/17 05:18:55;;;;;;;;;;;;;;;;;;4922389;29;20370;-92
2022/10/17 05:21:21;;;;;;;;;;;;;;;;;;4919217;29;19926;-89
2022/10/17 05:23:47;;;;;;;;;;;;;;;;;;4920514;29;19919;-92
2022/10/17 05:26:12;;;;;;;;;;;;;;;;;;4918166;29;20012;-90
2022/10/17 05:28:38;;;;;;;;;;;;;;;;;;4917744;29;20387;-95
2022/10/17 05:31:15;;;;;;;;;;;;;;;;;;4919026;29;19947;-91
2022/10/17 05:33:41;;;;;;;;;;;;;;;;;;4919553;29;19923;-95
2022/10/17 05:36:07;;;;;;;;;;;;;;;;;;4919036;29;20371;-94
2022/10/17 05:38:32;;;;;;;;;;;;;;;;;;4919220;29;20398;-93
2022/10/17 05:40:58;;;;;;;;;;;;;;;;;;4919611;29;20363;-94
2022/10/17 05:43:24;;;;;;;;;;;;;;;;;;4919852;29;19947;-94
2022/10/17 05:45:49;;;;;;;;;;;;;;;;;;4919550;29;19923;-93
2022/10/17 05:48:15;;;;;;;;;;;;;;;;;;4918400;29;19919;-93
2022/10/17 05:50:40;;;;;;;;;;;;;;;;;;4901697;29;19919;-93
2022/10/17 05:53:06;;;;;;;;;;;;;;;;;;4920919;29;20365;-95
2022/10/17 05:55:31;;;;;;;;;;;;;;;;;;4920668;29;19923;-91
2022/10/17 05:57:58;;;;;;;;;;;;;;;;;;4946761;29;19919;-94
2022/10/17 06:00:23;;;;;;;;;;;;;;;;;;4920773;29;19922;-89
2022/10/17 06:02:49;;;;;;;;;;;;;;;;;;4935635;29;19946;-90
2022/10/17 06:05:15;;;;;;;;;;;;;;;;;;4924915;29;20367;-93
2022/10/17 06:07:40;;;;;;;;;;;;;;;;;;4911537;29;19923;-92
2022/10/17 06:10:06;;;;;;;;;;;;;;;;;;4920144;29;19922;-93
2022/10/17 06:12:31;;;;;;;;;;;;;;;;;;4936493;29;20435;-90
2022/10/17 06:14:57;;;;;;;;;;;;;;;;;;4926205;29;19923;-92
2022/10/17 06:17:23;;;;;;;;;;;;;;;;;;4926022;29;20386;-89
2022/10/17 06:19:49;;;;;;;;;;;;;;;;;;4935388;29;19927;-90
2022/10/17 06:22:15;;;;;;;;;;;;;;;;;;4934027;29;19931;-91
2022/10/17 06:24:41;;;;;;;;;;;;;;;;;;4903445;29;19948;-90
2022/10/17 06:27:07;;;;;;;;;;;;;;;;;;4918813;29;19919;-90
2022/10/17 06:29:32;;;;;;;;;;;;;;;;;;4917498;29;19962;-92
2022/10/17 06:31:57;;;;;;;;;;;;;;;;;;4917230;29;19923;-91
2022/10/17 06:34:23;;;;;;;;;;;;;;;;;;4917139;29;19919;-91
2022/10/17 06:36:48;;;;;;;;;;;;;;;;;;4900100;29;19923;-91
2022/10/17 06:39:14;;;;;;;;;;;;;;;;;;4917141;29;19958;-89
2022/10/17 06:41:43;;;;;;;;;;;;;;;;;;4916134;29;19926;-90
2022/10/17 06:44:10;;;;;;;;;;;;;;;;;;4916623;29;19919;-90
2022/10/17 06:46:39;;;;;;;;;;;;;;;;;;4916501;29;19919;-90
2022/10/17 06:49:05;;;;;;;;;;;;;;;;;;4915673;29;19919;-89
2022/10/17 06:51:33;;;;;;;;;;;;;;;;;;4915570;29;19926;-89
2022/10/17 06:53:59;;;;;;;;;;;;;;;;;;4916377;29;19974;-91
2022/10/17 06:56:24;;;;;;;;;;;;;;;;;;4917180;29;19919;-91
2022/10/17 06:58:50;;;;;;;;;;;;;;;;;;4916357;29;19926;-89
2022/10/17 07:01:15;;;;;;;;;;;;;;;;;;4916142;29;19923;-88
2022/10/17 07:03:42;;;;;;;;;;;;;;;;;;4914566;29;19970;-89
2022/10/17 07:06:10;;;;;;;;;;;;;;;;;;4918146;29;19919;-89
2022/10/17 07:08:36;;;;;;;;;;;;;;;;;;4929401;29;20321;-89
2022/10/17 07:11:08;;;;;;;;;;;;;;;;;;4935233;29;19918;-88
2022/10/17 07:13:34;;;;;;;;;;;;;;;;;;4935236;29;19926;-89
2022/10/17 07:16:00;;;;;;;;;;;;;;;;;;4935083;29;19922;-90
2022/10/17 07:18:26;;;;;;;;;;;;;;;;;;4918023;29;19927;-89
2022/10/17 07:20:52;;;;;;;;;;;;;;;;;;4933527;29;20334;-88
2022/10/17 07:23:17;;;;;;;;;;;;;;;;;;4934397;29;19915;-89
2022/10/17 07:25:42;;;;;;;;;;;;;;;;;;4935201;29;19929;-88
2022/10/17 07:28:08;;;;;;;;;;;;;;;;;;4918758;29;19919;-89
2022/10/17 07:30:33;;;;;;;;;;;;;;;;;;4936053;29;19966;-89
2022/10/17 07:32:59;;;;;;;;;;;;;;;;;;4934984;29;19989;-89
2022/10/17 07:35:24;;;;;;;;;;;;;;;;;;4935426;29;19926;-90
2022/10/17 07:37:49;;;;;;;;;;;;;;;;;;4936008;29;19926;-90
2022/10/17 07:40:15;;;;;;;;;;;;;;;;;;4936919;29;19923;-89
2022/10/17 07:42:40;;;;;;;;;;;;;;;;;;4936728;29;19919;-89
2022/10/17 07:45:06;;;;;;;;;;;;;;;;;;4918020;29;20302;-92
2022/10/17 07:47:34;;;;;;;;;;;;;;;;;;4936894;29;20006;-89
2022/10/17 07:50:00;;;;;;;;;;;;;;;;;;4936158;29;19919;-89
2022/10/17 07:52:25;;;;;;;;;;;;;;;;;;4937962;29;20285;-89
2022/10/17 07:54:51;;;;;;;;;;;;;;;;;;4940770;29;19961;-87
2022/10/17 07:57:16;;;;;;;;;;;;;;;;;;4921547;29;20034;-90
2022/10/17 07:59:42;;;;;;;;;;;;;;;;;;4938575;29;19919;-87
2022/10/17 08:02:10;;;;;;;;;;;;;;;;;;4937724;29;19915;-88
2022/10/17 08:04:35;;;;;;;;;;;;;;;;;;4937698;29;20413;-87
2022/10/17 08:07:01;;;;;;;;;;;;;;;;;;4938312;29;19915;-88
2022/10/17 08:09:26;;;;;;;;;;;;;;;;;;4922093;29;19923;-88
2022/10/17 08:11:52;;;;;;;;;;;;;;;;;;4938675;29;19919;-86
2022/10/17 08:14:18;;;;;;;;;;;;;;;;;;4939101;29;19934;-87
2022/10/17 08:16:43;;;;;;;;;;;;;;;;;;4938663;29;19922;-86
2022/10/17 08:19:10;;;;;;;;;;;;;;;;;;4922165;29;19938;-85
2022/10/17 08:21:35;;;;;;;;;;;;;;;;;;4938409;29;19942;-87
2022/10/17 08:24:01;;;;;;;;;;;;;;;;;;4938677;29;20375;-84
2022/10/17 08:26:27;;;;;;;;;;;;;;;;;;4937532;29;19919;-86
2022/10/17 08:28:52;;;;;;;;;;;;;;;;;;4921533;29;19982;-86
2022/10/17 08:31:18;;;;;;;;;;;;;;;;;;4921040;29;20429;-88
2022/10/17 08:33:45;;;;;;;;;;;;;;;;;;4920580;29;19918;-89
2022/10/17 08:36:12;;;;;;;;;;;;;;;;;;4920731;29;19923;-87
2022/10/17 08:38:38;;;;;;;;;;;;;;;;;;4929960;29;19923;-88
2022/10/17 08:41:12;;;;;;;;;;;;;;;;;;4918738;29;19941;-89
2022/10/17 08:43:58;;;;;;;;;;;;;;;;;;4918131;29;19923;-90
2022/10/17 08:46:28;;;;;;;;;;;;;;;;;;4888730;29;19963;-90
2022/10/17 08:48:54;;;;;;;;;;;;;;;;;;4917772;29;19959;-89
2022/10/17 08:51:26;;;;;;;;;;;;;;;;;;4917683;29;19954;-88
2022/10/17 08:53:55;;;;;;;;;;;;;;;;;;4918629;29;19925;-89
2022/10/17 08:56:20;;;;;;;;;;;;;;;;;;4917842;29;19922;-87
2022/10/17 08:58:46;;;;;;;;;;;;;;;;;;4918680;29;20338;-89
2022/10/17 09:01:30;;;;;;;;;;;;;;;;;;4933766;29;19903;-87
2022/10/17 09:04:05;;;;;;;;;;;;;;;;;;4932707;28;19978;-89
2022/10/17 09:06:33;;;;;;;;;;;;;;;;;;4942688;28;20011;-89
2022/10/17 09:09:12;;;;;;;;;;;;;;;;;;4901692;29;19919;-89
2022/10/17 09:11:57;;;;;;;;;;;;;;;;;;4901845;29;19926;-89
2022/10/17 09:14:34;;;;;;;;;;;;;;;;;;4902015;29;20290;-89
2022/10/17 09:17:10;;;;;;;;;;;;;;;;;;4901075;29;19919;-90
2022/10/17 09:19:38;;;;;;;;;;;;;;;;;;4928445;29;19970;-90
2022/10/17 09:22:07;;;;;;;;;;;;;;;;;;4920058;29;19954;-90
2022/10/17 09:24:42;;;;;;;;;;;;;;;;;;4925853;29;19945;-90
2022/10/17 09:27:23;;;;;;;;;;;;;;;;;;4928655;29;20019;-88
2022/10/17 09:29:49;;;;;;;;;;;;;;;;;;4918421;29;19919;-90
2022/10/17 09:32:21;;;;;;;;;;;;;;;;;;4918367;29;19919;-89
2022/10/17 09:34:47;;;;;;;;;;;;;;;;;;4917743;29;20013;-88
2022/10/17 09:37:13;;;;;;;;;;;;;;;;;;4918034;29;20006;-87
2022/10/17 09:39:40;;;;;;;;;;;;;;;;;;4918178;29;19922;-88
2022/10/17 09:42:09;;;;;;;;;;;;;;;;;;4917649;29;19927;-87
2022/10/17 09:44:39;;;;;;;;;;;;;;;;;;4900803;29;20670;-90
2022/10/17 09:47:04;;;;;;;;;;;;;;;;;;4917320;29;20367;-88
2022/10/17 09:49:40;;;;;;;;;;;;;;;;;;4917908;29;19966;-91
2022/10/17 09:52:25;;;;;;;;;;;;;;;;;;4917803;29;19923;-91
2022/10/17 09:54:51;;;;;;;;;;;;;;;;;;4916683;29;19959;-91
2022/10/17 09:57:17;;;;;;;;;;;;;;;;;;4916561;29;20404;-91
2022/10/17 09:59:54;;;;;;;;;;;;;;;;;;4917736;29;19919;-89
2022/10/17 10:02:24;;;;;;;;;;;;;;;;;;4915910;29;20287;-91
2022/10/17 10:04:57;;;;;;;;;;;;;;;;;;4900237;29;19923;-90
2022/10/17 10:07:23;;;;;;;;;;;;;;;;;;4933563;29;19929;-91
2022/10/17 10:09:49;;;;;;;;;;;;;;;;;;4927747;29;19927;-91
2022/10/17 10:12:17;;;;;;;;;;;;;;;;;;4919379;29;20021;-89
2022/10/17 10:14:43;;;;;;;;;;;;;;;;;;4935061;29;19919;-91
2022/10/17 10:17:27;;;;;;;;;;;;;;;;;;4918990;29;20069;-90
2022/10/17 10:19:53;;;;;;;;;;;;;;;;;;4936078;29;19927;-86
2022/10/17 10:22:20;;;;;;;;;;;;;;;;;;4918567;29;19970;-87
2022/10/17 10:25:05;;;;;;;;;;;;;;;;;;4935843;29;19998;-89
2022/10/17 10:27:30;;;;;;;;;;;;;;;;;;4935924;29;19923;-88
2022/10/17 10:29:56;;;;;;;;;;;;;;;;;;4918708;29;20417;-87
2022/10/17 10:32:24;;;;;;;;;;;;;;;;;;4936048;29;19918;-88
2022/10/17 10:35:02;;;;;;;;;;;;;;;;;;4933536;29;20214;-89
2022/10/17 10:37:44;;;;;;;;;;;;;;;;;;4935903;29;19919;-88
2022/10/17 10:40:18;;;;;;;;;;;;;;;;;;4936077;29;19929;-88
2022/10/17 10:42:48;;;;;;;;;;;;;;;;;;4935184;29;20374;-87
2022/10/17 10:45:16;;;;;;;;;;;;;;;;;;4936217;29;20333;-89
2022/10/17 10:47:53;;;;;;;;;;;;;;;;;;4913558;29;20529;-88
2022/10/17 10:50:19;;;;;;;;;;;;;;;;;;4900243;29;20009;-90
2022/10/17 10:52:49;;;;;;;;;;;;;;;;;;4916868;29;19974;-89
2022/10/17 10:55:33;;;;;;;;;;;;;;;;;;4915254;29;19927;-88
2022/10/17 10:58:02;;;;;;;;;;;;;;;;;;4900159;29;19926;-88
2022/10/17 11:00:28;;;;;;;;;;;;;;;;;;4916861;29;20383;-88
2022/10/17 11:03:00;;;;;;;;;;;;;;;;;;4917083;29;19922;-88
2022/10/17 11:05:41;;;;;;;;;;;;;;;;;;4920243;29;19930;-90
2022/10/17 11:08:10;;;;;;;;;;;;;;;;;;4935242;29;19919;-88
2022/10/17 11:10:38;;;;;;;;;;;;;;;;;;4918362;29;19919;-89
2022/10/17 11:13:21;;;;;;;;;;;;;;;;;;4918086;29;19919;-88
2022/10/17 11:16:05;;;;;;;;;;;;;;;;;;4917002;29;19927;-88
2022/10/17 11:18:38;;;;;;;;;;;;;;;;;;4917303;29;19923;-90
2022/10/17 11:21:27;;;;;;;;;;;;;;;;;;4899092;29;19923;-88
2022/10/17 11:24:05;;;;;;;;;;;;;;;;;;4898629;29;19970;-89
2022/10/17 11:26:33;;;;;;;;;;;;;;;;;;4898015;29;19941;-89
2022/10/17 11:29:01;;;;;;;;;;;;;;;;;;4916534;29;19926;-86
2022/10/17 11:31:30;;;;;;;;;;;;;;;;;;4917670;29;20341;-87
2022/10/17 11:33:58;;;;;;;;;;;;;;;;;;4902949;29;19923;-89
2022/10/17 11:36:26;;;;;;;;;;;;;;;;;;4916497;29;19963;-87
2022/10/17 11:39:12;;;;;;;;;;;;;;;;;;4918738;29;20028;-89
2022/10/17 11:41:41;;;;;;;;;;;;;;;;;;4918425;29;20240;-88
2022/10/17 11:44:25;;;;;;;;;;;;;;;;;;4918203;29;20482;-89
2022/10/17 11:46:53;;;;;;;;;;;;;;;;;;4917227;29;19934;-88
2022/10/17 11:49:22;;;;;;;;;;;;;;;;;;4930260;29;19933;-87
2022/10/17 11:51:50;;;;;;;;;;;;;;;;;;4914970;29;20006;-88
2022/10/17 11:54:19;;;;;;;;;;;;;;;;;;4930760;29;19931;-89
2022/10/17 11:57:01;;;;;;;;;;;;;;;;;;4933159;29;19919;-90
2022/10/17 11:59:46;;;;;;;;;;;;;;;;;;4938053;29;19927;-87
2022/10/17 12:02:16;;;;;;;;;;;;;;;;;;4920186;29;20050;-87
2022/10/17 12:05:01;;;;;;;;;;;;;;;;;;4937226;29;20070;-86
2022/10/17 12:07:29;;;;;;;;;;;;;;;;;;4920431;29;19922;-90
2022/10/17 12:10:06;;;;;;;;;;;;;;;;;;4935770;29;19922;-89
2022/10/17 12:12:33;;;;;;;;;;;;;;;;;;4932501;29;19919;-90
2022/10/17 12:15:10;;;;;;;;;;;;;;;;;;4931392;29;20005;-88
2022/10/17 12:17:39;;;;;;;;;;;;;;;;;;4923174;29;20314;-89
2022/10/17 12:20:20;;;;;;;;;;;;;;;;;;4927608;29;19934;-90
2022/10/17 12:22:46;;;;;;;;;;;;;;;;;;4917133;29;19938;-89
2022/10/17 12:25:17;;;;;;;;;;;;;;;;;;4916877;29;19918;-89
2022/10/17 12:27:44;;;;;;;;;;;;;;;;;;4929416;29;20343;-89
2022/10/17 12:30:26;;;;;;;;;;;;;;;;;;4933410;29;20577;-90
2022/10/17 12:33:21;;;;;;;;;;;;;;;;;;4939384;29;19919;-91
2022/10/17 12:35:47;;;;;;;;;;;;;;;;;;4913207;29;19922;-90
2022/10/17 12:38:17;;;;;;;;;;;;;;;;;;4938225;29;19962;-88
2022/10/17 12:40:42;;;;;;;;;;;;;;;;;;4938450;29;19919;-88
2022/10/17 12:43:14;;;;;;;;;;;;;;;;;;4940258;29;19923;-88
2022/10/17 12:45:55;;;;;;;;;;;;;;;;;;4924721;29;19989;-88
2022/10/17 12:48:33;;;;;;;;;;;;;;;;;;4939586;29;19922;-88
2022/10/17 12:51:10;;;;;;;;;;;;;;;;;;4939522;29;19963;-90
2022/10/17 12:53:42;;;;;;;;;;;;;;;;;;4947001;29;19934;-88
2022/10/17 12:56:08;;;;;;;;;;;;;;;;;;4933729;28;20378;-88
2022/10/17 12:58:33;;;;;;;;;;;;;;;;;;4952379;28;19918;-89
2022/10/17 13:00:59;;;;;;;;;;;;;;;;;;4952058;28;19980;-88
2022/10/17 13:03:30;;;;;;;;;;;;;;;;;;4919141;29;19919;-91
2022/10/17 13:06:03;;;;;;;;;;;;;;;;;;4916993;29;19926;-88
2022/10/17 13:08:28;;;;;;;;;;;;;;;;;;4901529;29;19915;-88
2022/10/17 13:10:54;;;;;;;;;;;;;;;;;;4918537;29;20058;-88
2022/10/17 13:13:27;;;;;;;;;;;;;;;;;;4936361;29;19919;-88
2022/10/17 13:15:53;;;;;;;;;;;;;;;;;;4937039;29;19919;-89
2022/10/17 13:18:23;;;;;;;;;;;;;;;;;;4937349;29;19990;-89
2022/10/17 13:20:56;;;;;;;;;;;;;;;;;;4920210;29;19946;-89
2022/10/17 13:23:22;;;;;;;;;;;;;;;;;;4920444;29;19919;-87
2022/10/17 13:26:00;;;;;;;;;;;;;;;;;;4937101;29;19919;-89
2022/10/17 13:28:27;;;;;;;;;;;;;;;;;;4919930;29;20293;-89
2022/10/17 13:30:53;;;;;;;;;;;;;;;;;;4937431;29;19974;-87
2022/10/17 13:33:32;;;;;;;;;;;;;;;;;;4937524;29;19923;-90
2022/10/17 13:35:59;;;;;;;;;;;;;;;;;;4936961;29;19919;-90
2022/10/17 13:38:31;;;;;;;;;;;;;;;;;;4919752;29;19923;-89
2022/10/17 13:40:57;;;;;;;;;;;;;;;;;;4919823;29;19929;-90
2022/10/17 13:43:25;;;;;;;;;;;;;;;;;;4936256;29;20363;-89
2022/10/17 13:45:52;;;;;;;;;;;;;;;;;;4919762;29;20286;-88
2022/10/17 13:48:27;;;;;;;;;;;;;;;;;;4919803;29;20487;-89
2022/10/17 13:50:55;;;;;;;;;;;;;;;;;;4936205;29;19918;-91
2022/10/17 13:53:24;;;;;;;;;;;;;;;;;;4936708;29;19919;-87
2022/10/17 13:55:51;;;;;;;;;;;;;;;;;;4919419;29;19919;-88
2022/10/17 13:58:17;;;;;;;;;;;;;;;;;;4937871;29;19929;-89
2022/10/17 14:00:43;;;;;;;;;;;;;;;;;;4920653;29;20366;-89
2022/10/17 14:03:08;;;;;;;;;;;;;;;;;;4936572;29;19919;-88
2022/10/17 14:05:34;;;;;;;;;;;;;;;;;;4936872;29;19922;-91
2022/10/17 14:08:02;;;;;;;;;;;;;;;;;;4936311;29;19942;-88
2022/10/17 14:10:31;;;;;;;;;;;;;;;;;;4936386;29;19925;-87
2022/10/17 14:12:57;;;;;;;;;;;;;;;;;;4936600;29;19927;-87
2022/10/17 14:15:27;;;;;;;;;;;;;;;;;;4936055;29;19915;-88
2022/10/17 14:17:55;;;;;;;;;;;;;;;;;;4936222;29;20342;-87
2022/10/17 14:20:22;;;;;;;;;;;;;;;;;;4936200;29;19937;-88
2022/10/17 14:22:47;;;;;;;;;;;;;;;;;;4935966;29;19974;-88
2022/10/17 14:25:34;;;;;;;;;;;;;;;;;;4936117;29;19911;-89
2022/10/17 14:28:13;;;;;;;;;;;;;;;;;;4919083;29;19973;-89
2022/10/17 14:30:42;;;;;;;;;;;;;;;;;;4935737;29;19919;-87
2022/10/17 14:33:17;;;;;;;;;;;;;;;;;;4935341;29;19919;-89
2022/10/17 14:35:53;;;;;;;;;;;;;;;;;;4935331;29;19938;-88
2022/10/17 14:38:19;;;;;;;;;;;;;;;;;;4935958;29;19918;-89
2022/10/17 14:40:56;;;;;;;;;;;;;;;;;;4918851;29;19958;-88
2022/10/17 14:43:24;;;;;;;;;;;;;;;;;;4918747;29;19926;-89
2022/10/17 14:45:49;;;;;;;;;;;;;;;;;;4919624;29;20370;-88
2022/10/17 14:48:16;;;;;;;;;;;;;;;;;;4936689;29;19919;-89
2022/10/17 14:50:42;;;;;;;;;;;;;;;;;;4935418;29;19942;-87
2022/10/17 14:53:11;;;;;;;;;;;;;;;;;;4919982;29;19919;-88
2022/10/17 14:55:52;;;;;;;;;;;;;;;;;;4922379;29;19948;-88
2022/10/17 14:58:23;;;;;;;;;;;;;;;;;;4922425;29;20386;-86
2022/10/17 15:00:48;;;;;;;;;;;;;;;;;;4939768;29;20357;-89
2022/10/17 15:03:14;;;;;;;;;;;;;;;;;;4924397;29;20009;-90
2022/10/17 15:05:39;;;;;;;;;;;;;;;;;;4923858;29;19926;-89
2022/10/17 15:08:09;;;;;;;;;;;;;;;;;;4922591;29;19990;-87
2022/10/17 15:10:36;;;;;;;;;;;;;;;;;;4935795;29;19922;-87
2022/10/17 15:13:01;;;;;;;;;;;;;;;;;;4923184;29;19918;-86
2022/10/17 15:15:27;;;;;;;;;;;;;;;;;;4936484;29;19969;-88
2022/10/17 15:17:53;;;;;;;;;;;;;;;;;;4922787;29;19923;-89
2022/10/17 15:20:19;;;;;;;;;;;;;;;;;;4939711;29;19925;-89
2022/10/17 15:22:44;;;;;;;;;;;;;;;;;;4939645;29;19966;-89
2022/10/17 15:25:09;;;;;;;;;;;;;;;;;;4919598;29;19930;-87
2022/10/17 15:27:35;;;;;;;;;;;;;;;;;;4908629;29;20605;-88
2022/10/17 15:30:00;;;;;;;;;;;;;;;;;;4903520;29;21806;-88
2022/10/17 15:32:26;;;;;;;;;;;;;;;;;;4933511;29;19996;-88
2022/10/17 15:34:51;;;;;;;;;;;;;;;;;;4909769;29;20335;-85
2022/10/17 15:37:21;;;;;;;;;;;;;;;;;;4904523;29;19927;-85
2022/10/17 15:42:25;;;;;;;;;;;;;;;;;;5101154;23;19935;-87
2022/10/17 15:44:51;;;;;;;;;;;;;;;;;;4915729;29;19937;-85
2022/10/17 15:47:34;;;;;;;;;;;;;;;;;;4933384;29;20348;-85
2022/10/17 15:50:01;;;;;;;;;;;;;;;;;;4914885;29;20382;-84
2022/10/17 15:52:26;;;;;;;;;;;;;;;;;;4930877;29;20404;-87
2022/10/17 15:54:52;;;;;;;;;;;;;;;;;;4931263;29;19923;-86
2022/10/17 15:57:19;;;;;;;;;;;;;;;;;;4928236;29;19981;-85
2022/10/17 15:59:45;;;;;;;;;;;;;;;;;;4911836;29;20306;-88
2022/10/17 16:02:15;;;;;;;;;;;;;;;;;;4911899;29;19935;-85
2022/10/17 16:04:41;;;;;;;;;;;;;;;;;;4913493;29;19969;-85
2022/10/17 16:07:06;;;;;;;;;;;;;;;;;;4930378;29;19970;-86
2022/10/17 16:09:33;;;;;;;;;;;;;;;;;;4932051;29;19922;-87
2022/10/17 16:11:59;;;;;;;;;;;;;;;;;;4913828;29;19946;-86
2022/10/17 16:14:25;;;;;;;;;;;;;;;;;;4933465;29;19923;-86
2022/10/17 16:16:51;;;;;;;;;;;;;;;;;;4934864;29;19931;-86
2022/10/17 16:19:16;;;;;;;;;;;;;;;;;;4916784;29;19927;-85
2022/10/17 16:21:41;;;;;;;;;;;;;;;;;;4928724;29;20283;-87
2022/10/17 16:24:13;;;;;;;;;;;;;;;;;;4912851;29;20279;-85
2022/10/17 16:26:39;;;;;;;;;;;;;;;;;;4930676;29;19923;-85
2022/10/17 16:29:04;;;;;;;;;;;;;;;;;;4938530;29;20481;-86
2022/10/17 16:31:34;;;;;;;;;;;;;;;;;;4921134;29;20222;-85
2022/10/17 16:34:00;;;;;;;;;;;;;;;;;;4940717;29;20012;-86
2022/10/17 16:36:25;;;;;;;;;;;;;;;;;;4929823;29;19915;-87
2022/10/17 16:38:52;;;;;;;;;;;;;;;;;;4931705;29;19934;-85
2022/10/17 16:41:22;;;;;;;;;;;;;;;;;;4946771;29;19923;-88
2022/10/17 16:43:48;;;;;;;;;;;;;;;;;;4942173;29;19926;-86
2022/10/17 16:46:14;;;;;;;;;;;;;;;;;;4918650;29;20274;-87
2022/10/17 16:48:40;;;;;;;;;;;;;;;;;;4936419;28;19945;-89
2022/10/17 16:51:05;;;;;;;;;;;;;;;;;;4919038;29;19919;-87
2022/10/17 16:53:31;;;;;;;;;;;;;;;;;;4918114;29;19935;-84
2022/10/17 16:56:03;;;;;;;;;;;;;;;;;;4920535;29;19930;-88
2022/10/17 16:58:31;;;;;;;;;;;;;;;;;;4933741;29;19986;-87
2022/10/17 17:00:59;;;;;;;;;;;;;;;;;;4932236;29;19930;-87
2022/10/17 17:03:25;;;;;;;;;;;;;;;;;;4939643;29;19923;-86